sensor_id;sensor_type;location;lat;lon;timestamp;P1;durP1;ratioP1;P2;durP2;ratioP2
73474;SDS011;61711;52.266;10.542;2022-08-03T00:01:52;5.38;;;4.10;;
73474;SDS011;61711;52.266;10.542;2022-08-03T00:04:18;5.82;;;4.15;;
73474;SDS011;61711;52.266;10.542;2022-08-03T00:06:44;5.97;;;4.18;;
73474;SDS011;61711;52.266;10.542;2022-08-03T00:09:10;7.72;;;4.20;;
73474;SDS011;61711;52.266;10.542;2022-08-03T00:11:36;4.47;;;4.00;;
73474;SDS011;61711;52.266;10.542;2022-08-03T00:14:03;6.30;;;4.50;;
73474;SDS011;61711;52.266;10.542;2022-08-03T00:16:29;6.05;;;3.97;;
73474;SDS011;61711;52.266;10.542;2022-08-03T00:18:55;6.25;;;4.50;;
73474;SDS011;61711;52.266;10.542;2022-08-03T00:21:21;7.75;;;4.53;;
73474;SDS011;61711;52.266;10.542;2022-08-03T00:23:48;6.32;;;4.07;;
73474;SDS011;61711;52.266;10.542;2022-08-03T00:26:14;6.65;;;4.63;;
73474;SDS011;61711;52.266;10.542;2022-08-03T00:28:40;4.97;;;4.32;;
73474;SDS011;61711;52.266;10.542;2022-08-03T00:31:06;6.20;;;4.70;;
73474;SDS011;61711;52.266;10.542;2022-08-03T00:33:32;4.90;;;4.15;;
73474;SDS011;61711;52.266;10.542;2022-08-03T00:35:58;4.88;;;4.20;;
73474;SDS011;61711;52.266;10.542;2022-08-03T00:38:24;7.45;;;4.45;;
73474;SDS011;61711;52.266;10.542;2022-08-03T00:40:50;6.13;;;3.90;;
73474;SDS011;61711;52.266;10.542;2022-08-03T00:43:16;7.68;;;4.50;;
73474;SDS011;61711;52.266;10.542;2022-08-03T00:45:42;4.63;;;4.10;;
73474;SDS011;61711;52.266;10.542;2022-08-03T00:48:09;6.68;;;4.28;;
73474;SDS011;61711;52.266;10.542;2022-08-03T00:50:41;8.75;;;4.43;;
73474;SDS011;61711;52.266;10.542;2022-08-03T00:53:08;7.22;;;4.47;;
73474;SDS011;61711;52.266;10.542;2022-08-03T00:55:36;6.68;;;4.63;;
73474;SDS011;61711;52.266;10.542;2022-08-03T00:58:03;7.07;;;4.82;;
73474;SDS011;61711;52.266;10.542;2022-08-03T01:00:33;8.55;;;4.57;;
73474;SDS011;61711;52.266;10.542;2022-08-03T01:03:03;6.65;;;4.35;;
73474;SDS011;61711;52.266;10.542;2022-08-03T01:05:29;7.10;;;4.43;;
73474;SDS011;61711;52.266;10.542;2022-08-03T01:08:02;5.65;;;4.40;;
73474;SDS011;61711;52.266;10.542;2022-08-03T01:15:43;6.68;;;4.60;;
73474;SDS011;61711;52.266;10.542;2022-08-03T01:18:13;5.00;;;4.50;;
73474;SDS011;61711;52.266;10.542;2022-08-03T01:20:50;7.32;;;4.50;;
73474;SDS011;61711;52.266;10.542;2022-08-03T01:23:32;5.70;;;4.22;;
73474;SDS011;61711;52.266;10.542;2022-08-03T01:31:25;5.95;;;4.57;;
73474;SDS011;61711;52.266;10.542;2022-08-03T01:33:54;4.82;;;4.43;;
73474;SDS011;61711;52.266;10.542;2022-08-03T01:36:23;5.18;;;4.40;;
73474;SDS011;61711;52.266;10.542;2022-08-03T01:38:53;5.82;;;4.30;;
73474;SDS011;61711;52.266;10.542;2022-08-03T01:41:20;5.22;;;4.53;;
73474;SDS011;61711;52.266;10.542;2022-08-03T01:43:47;5.90;;;4.30;;
73474;SDS011;61711;52.266;10.542;2022-08-03T01:46:15;5.78;;;4.22;;
73474;SDS011;61711;52.266;10.542;2022-08-03T01:48:42;4.65;;;4.07;;
73474;SDS011;61711;52.266;10.542;2022-08-03T01:51:08;4.47;;;4.05;;
73474;SDS011;61711;52.266;10.542;2022-08-03T01:53:35;8.23;;;4.50;;
73474;SDS011;61711;52.266;10.542;2022-08-03T01:56:02;5.25;;;4.30;;
73474;SDS011;61711;52.266;10.542;2022-08-03T01:58:31;6.57;;;4.32;;
73474;SDS011;61711;52.266;10.542;2022-08-03T02:00:58;6.05;;;4.13;;
73474;SDS011;61711;52.266;10.542;2022-08-03T02:03:26;6.05;;;4.28;;
73474;SDS011;61711;52.266;10.542;2022-08-03T02:05:53;6.72;;;4.15;;
73474;SDS011;61711;52.266;10.542;2022-08-03T02:08:19;7.07;;;4.85;;
73474;SDS011;61711;52.266;10.542;2022-08-03T02:10:47;5.07;;;4.40;;
73474;SDS011;61711;52.266;10.542;2022-08-03T02:13:14;5.40;;;4.35;;
73474;SDS011;61711;52.266;10.542;2022-08-03T02:15:41;6.22;;;4.30;;
73474;SDS011;61711;52.266;10.542;2022-08-03T02:18:09;6.63;;;4.38;;
73474;SDS011;61711;52.266;10.542;2022-08-03T02:20:36;4.30;;;3.90;;
73474;SDS011;61711;52.266;10.542;2022-08-03T02:23:03;6.75;;;4.43;;
73474;SDS011;61711;52.266;10.542;2022-08-03T02:25:30;5.28;;;4.47;;
73474;SDS011;61711;52.266;10.542;2022-08-03T02:27:57;4.57;;;4.18;;
73474;SDS011;61711;52.266;10.542;2022-08-03T02:30:26;6.15;;;4.43;;
73474;SDS011;61711;52.266;10.542;2022-08-03T02:32:55;6.75;;;4.50;;
73474;SDS011;61711;52.266;10.542;2022-08-03T02:35:23;6.18;;;4.28;;
73474;SDS011;61711;52.266;10.542;2022-08-03T02:37:51;4.63;;;4.22;;
73474;SDS011;61711;52.266;10.542;2022-08-03T02:40:18;6.97;;;4.72;;
73474;SDS011;61711;52.266;10.542;2022-08-03T02:42:45;4.88;;;4.28;;
73474;SDS011;61711;52.266;10.542;2022-08-03T02:45:11;5.68;;;4.50;;
73474;SDS011;61711;52.266;10.542;2022-08-03T02:47:40;4.68;;;3.90;;
73474;SDS011;61711;52.266;10.542;2022-08-03T02:50:08;7.18;;;4.38;;
73474;SDS011;61711;52.266;10.542;2022-08-03T02:52:34;7.05;;;4.40;;
73474;SDS011;61711;52.266;10.542;2022-08-03T02:55:02;6.68;;;4.75;;
73474;SDS011;61711;52.266;10.542;2022-08-03T02:57:29;5.90;;;4.55;;
73474;SDS011;61711;52.266;10.542;2022-08-03T02:59:56;5.93;;;4.80;;
73474;SDS011;61711;52.266;10.542;2022-08-03T03:02:22;5.32;;;4.38;;
73474;SDS011;61711;52.266;10.542;2022-08-03T03:04:50;9.70;;;4.15;;
73474;SDS011;61711;52.266;10.542;2022-08-03T03:07:16;5.32;;;4.47;;
73474;SDS011;61711;52.266;10.542;2022-08-03T03:09:42;5.75;;;4.90;;
73474;SDS011;61711;52.266;10.542;2022-08-03T03:12:09;4.65;;;4.20;;
73474;SDS011;61711;52.266;10.542;2022-08-03T03:14:36;5.32;;;4.65;;
73474;SDS011;61711;52.266;10.542;2022-08-03T03:17:02;5.18;;;4.35;;
73474;SDS011;61711;52.266;10.542;2022-08-03T03:19:29;5.88;;;4.72;;
73474;SDS011;61711;52.266;10.542;2022-08-03T03:21:57;5.45;;;4.30;;
73474;SDS011;61711;52.266;10.542;2022-08-03T03:24:25;7.90;;;4.43;;
73474;SDS011;61711;52.266;10.542;2022-08-03T03:26:52;6.07;;;4.18;;
73474;SDS011;61711;52.266;10.542;2022-08-03T03:29:18;6.95;;;4.70;;
73474;SDS011;61711;52.266;10.542;2022-08-03T03:31:44;7.15;;;4.30;;
73474;SDS011;61711;52.266;10.542;2022-08-03T03:34:11;4.53;;;4.13;;
73474;SDS011;61711;52.266;10.542;2022-08-03T03:36:37;5.00;;;4.50;;
73474;SDS011;61711;52.266;10.542;2022-08-03T03:39:03;7.43;;;4.60;;
73474;SDS011;61711;52.266;10.542;2022-08-03T03:41:29;6.25;;;4.60;;
73474;SDS011;61711;52.266;10.542;2022-08-03T03:43:55;7.22;;;4.50;;
73474;SDS011;61711;52.266;10.542;2022-08-03T03:46:21;4.75;;;3.95;;
73474;SDS011;61711;52.266;10.542;2022-08-03T03:48:47;5.80;;;4.45;;
73474;SDS011;61711;52.266;10.542;2022-08-03T03:51:13;7.10;;;4.30;;
73474;SDS011;61711;52.266;10.542;2022-08-03T03:53:40;6.15;;;4.30;;
73474;SDS011;61711;52.266;10.542;2022-08-03T03:56:06;7.88;;;4.65;;
73474;SDS011;61711;52.266;10.542;2022-08-03T03:58:32;5.45;;;4.32;;
73474;SDS011;61711;52.266;10.542;2022-08-03T04:00:58;5.40;;;4.40;;
73474;SDS011;61711;52.266;10.542;2022-08-03T04:03:25;7.22;;;4.47;;
73474;SDS011;61711;52.266;10.542;2022-08-03T04:05:51;5.80;;;4.30;;
73474;SDS011;61711;52.266;10.542;2022-08-03T04:08:36;6.28;;;4.45;;
73474;SDS011;61711;52.266;10.542;2022-08-03T04:11:27;4.85;;;4.40;;
73474;SDS011;61711;52.266;10.542;2022-08-03T04:13:56;6.40;;;4.93;;
73474;SDS011;61711;52.266;10.542;2022-08-03T04:16:27;6.03;;;4.45;;
73474;SDS011;61711;52.266;10.542;2022-08-03T04:18:58;6.45;;;4.47;;
73474;SDS011;61711;52.266;10.542;2022-08-03T04:21:26;5.65;;;4.07;;
73474;SDS011;61711;52.266;10.542;2022-08-03T04:23:54;5.45;;;4.45;;
73474;SDS011;61711;52.266;10.542;2022-08-03T04:26:23;6.53;;;4.35;;
73474;SDS011;61711;52.266;10.542;2022-08-03T04:28:52;5.05;;;4.55;;
73474;SDS011;61711;52.266;10.542;2022-08-03T04:31:22;6.78;;;4.20;;
73474;SDS011;61711;52.266;10.542;2022-08-03T04:33:49;5.07;;;4.60;;
73474;SDS011;61711;52.266;10.542;2022-08-03T04:36:16;9.40;;;4.50;;
73474;SDS011;61711;52.266;10.542;2022-08-03T04:38:54;5.65;;;4.53;;
73474;SDS011;61711;52.266;10.542;2022-08-03T04:41:23;7.40;;;4.70;;
73474;SDS011;61711;52.266;10.542;2022-08-03T04:43:50;5.57;;;4.85;;
73474;SDS011;61711;52.266;10.542;2022-08-03T04:46:18;4.97;;;4.47;;
73474;SDS011;61711;52.266;10.542;2022-08-03T04:48:47;5.88;;;4.68;;
73474;SDS011;61711;52.266;10.542;2022-08-03T04:51:13;7.32;;;4.78;;
73474;SDS011;61711;52.266;10.542;2022-08-03T04:53:40;6.20;;;4.38;;
73474;SDS011;61711;52.266;10.542;2022-08-03T04:56:07;6.03;;;4.25;;
73474;SDS011;61711;52.266;10.542;2022-08-03T04:58:33;5.90;;;4.60;;
73474;SDS011;61711;52.266;10.542;2022-08-03T05:00:59;5.50;;;4.15;;
73474;SDS011;61711;52.266;10.542;2022-08-03T05:03:25;6.25;;;4.38;;
73474;SDS011;61711;52.266;10.542;2022-08-03T05:05:52;5.57;;;4.60;;
73474;SDS011;61711;52.266;10.542;2022-08-03T05:08:18;4.78;;;4.38;;
73474;SDS011;61711;52.266;10.542;2022-08-03T05:10:44;5.50;;;4.20;;
73474;SDS011;61711;52.266;10.542;2022-08-03T05:13:10;6.22;;;4.47;;
73474;SDS011;61711;52.266;10.542;2022-08-03T05:15:38;5.22;;;4.57;;
73474;SDS011;61711;52.266;10.542;2022-08-03T05:18:04;5.68;;;4.57;;
73474;SDS011;61711;52.266;10.542;2022-08-03T05:20:30;5.80;;;4.88;;
73474;SDS011;61711;52.266;10.542;2022-08-03T05:22:57;5.80;;;4.40;;
73474;SDS011;61711;52.266;10.542;2022-08-03T05:25:25;4.95;;;4.10;;
73474;SDS011;61711;52.266;10.542;2022-08-03T05:27:51;4.68;;;4.20;;
73474;SDS011;61711;52.266;10.542;2022-08-03T05:30:17;5.25;;;4.68;;
73474;SDS011;61711;52.266;10.542;2022-08-03T05:32:43;6.20;;;4.30;;
73474;SDS011;61711;52.266;10.542;2022-08-03T05:35:09;5.05;;;4.50;;
73474;SDS011;61711;52.266;10.542;2022-08-03T05:37:35;6.57;;;4.50;;
73474;SDS011;61711;52.266;10.542;2022-08-03T05:40:02;5.50;;;4.20;;
73474;SDS011;61711;52.266;10.542;2022-08-03T05:42:28;5.35;;;4.28;;
73474;SDS011;61711;52.266;10.542;2022-08-03T05:44:54;10.43;;;4.55;;
73474;SDS011;61711;52.266;10.542;2022-08-03T05:47:20;6.30;;;4.50;;
73474;SDS011;61711;52.266;10.542;2022-08-03T05:49:46;6.40;;;4.50;;
73474;SDS011;61711;52.266;10.542;2022-08-03T05:52:12;5.30;;;4.80;;
73474;SDS011;61711;52.266;10.542;2022-08-03T05:54:39;4.70;;;4.20;;
73474;SDS011;61711;52.266;10.542;2022-08-03T05:57:05;5.72;;;4.53;;
73474;SDS011;61711;52.266;10.542;2022-08-03T05:59:31;5.25;;;4.50;;
73474;SDS011;61711;52.266;10.542;2022-08-03T06:01:57;4.80;;;4.30;;
73474;SDS011;61711;52.266;10.542;2022-08-03T06:04:23;6.15;;;4.40;;
73474;SDS011;61711;52.266;10.542;2022-08-03T06:06:49;5.40;;;4.30;;
73474;SDS011;61711;52.266;10.542;2022-08-03T06:09:15;5.10;;;4.60;;
73474;SDS011;61711;52.266;10.542;2022-08-03T06:11:41;6.32;;;4.57;;
73474;SDS011;61711;52.266;10.542;2022-08-03T06:14:07;8.63;;;4.55;;
73474;SDS011;61711;52.266;10.542;2022-08-03T06:16:33;4.32;;;3.95;;
73474;SDS011;61711;52.266;10.542;2022-08-03T06:19:00;6.22;;;4.53;;
73474;SDS011;61711;52.266;10.542;2022-08-03T06:21:26;6.50;;;4.45;;
73474;SDS011;61711;52.266;10.542;2022-08-03T06:23:52;6.65;;;4.65;;
73474;SDS011;61711;52.266;10.542;2022-08-03T06:26:18;5.07;;;4.65;;
73474;SDS011;61711;52.266;10.542;2022-08-03T06:28:44;5.38;;;4.38;;
73474;SDS011;61711;52.266;10.542;2022-08-03T06:31:10;4.97;;;4.40;;
73474;SDS011;61711;52.266;10.542;2022-08-03T06:33:36;4.70;;;4.25;;
73474;SDS011;61711;52.266;10.542;2022-08-03T06:36:02;5.18;;;4.25;;
73474;SDS011;61711;52.266;10.542;2022-08-03T06:38:28;6.40;;;4.25;;
73474;SDS011;61711;52.266;10.542;2022-08-03T06:40:54;4.60;;;4.20;;
73474;SDS011;61711;52.266;10.542;2022-08-03T06:43:20;6.55;;;4.50;;
73474;SDS011;61711;52.266;10.542;2022-08-03T06:45:46;4.78;;;4.28;;
73474;SDS011;61711;52.266;10.542;2022-08-03T06:48:12;5.90;;;4.10;;
73474;SDS011;61711;52.266;10.542;2022-08-03T06:50:39;5.00;;;4.25;;
73474;SDS011;61711;52.266;10.542;2022-08-03T06:53:06;4.32;;;3.78;;
73474;SDS011;61711;52.266;10.542;2022-08-03T06:55:33;5.70;;;4.30;;
73474;SDS011;61711;52.266;10.542;2022-08-03T06:57:59;4.38;;;3.97;;
73474;SDS011;61711;52.266;10.542;2022-08-03T07:00:25;6.07;;;4.40;;
73474;SDS011;61711;52.266;10.542;2022-08-03T07:02:52;5.22;;;4.57;;
73474;SDS011;61711;52.266;10.542;2022-08-03T07:05:18;4.35;;;4.00;;
73474;SDS011;61711;52.266;10.542;2022-08-03T07:07:44;5.40;;;4.07;;
73474;SDS011;61711;52.266;10.542;2022-08-03T07:10:10;4.75;;;4.05;;
73474;SDS011;61711;52.266;10.542;2022-08-03T07:12:37;5.63;;;4.50;;
73474;SDS011;61711;52.266;10.542;2022-08-03T07:15:04;5.55;;;4.05;;
73474;SDS011;61711;52.266;10.542;2022-08-03T07:17:33;4.70;;;4.03;;
73474;SDS011;61711;52.266;10.542;2022-08-03T07:20:00;4.45;;;4.05;;
73474;SDS011;61711;52.266;10.542;2022-08-03T07:22:26;5.80;;;4.13;;
73474;SDS011;61711;52.266;10.542;2022-08-03T07:24:52;4.63;;;4.07;;
73474;SDS011;61711;52.266;10.542;2022-08-03T07:27:18;4.82;;;4.10;;
73474;SDS011;61711;52.266;10.542;2022-08-03T07:29:45;5.57;;;4.32;;
73474;SDS011;61711;52.266;10.542;2022-08-03T07:32:11;6.53;;;4.53;;
73474;SDS011;61711;52.266;10.542;2022-08-03T07:34:37;5.95;;;4.15;;
73474;SDS011;61711;52.266;10.542;2022-08-03T07:37:03;5.85;;;4.15;;
73474;SDS011;61711;52.266;10.542;2022-08-03T07:39:29;9.15;;;4.53;;
73474;SDS011;61711;52.266;10.542;2022-08-03T07:41:55;7.45;;;4.82;;
73474;SDS011;61711;52.266;10.542;2022-08-03T07:44:21;5.82;;;4.80;;
73474;SDS011;61711;52.266;10.542;2022-08-03T07:46:47;7.70;;;4.40;;
73474;SDS011;61711;52.266;10.542;2022-08-03T07:49:14;6.07;;;4.43;;
73474;SDS011;61711;52.266;10.542;2022-08-03T07:51:40;10.82;;;5.00;;
73474;SDS011;61711;52.266;10.542;2022-08-03T07:54:06;6.05;;;4.50;;
73474;SDS011;61711;52.266;10.542;2022-08-03T07:56:34;10.02;;;4.65;;
73474;SDS011;61711;52.266;10.542;2022-08-03T07:59:00;5.97;;;4.70;;
73474;SDS011;61711;52.266;10.542;2022-08-03T08:01:27;7.97;;;4.57;;
73474;SDS011;61711;52.266;10.542;2022-08-03T08:03:53;9.50;;;4.88;;
73474;SDS011;61711;52.266;10.542;2022-08-03T08:06:19;8.05;;;4.60;;
73474;SDS011;61711;52.266;10.542;2022-08-03T08:08:46;10.27;;;4.60;;
73474;SDS011;61711;52.266;10.542;2022-08-03T08:11:12;6.47;;;4.35;;
73474;SDS011;61711;52.266;10.542;2022-08-03T08:13:38;7.43;;;4.55;;
73474;SDS011;61711;52.266;10.542;2022-08-03T08:16:04;6.93;;;4.63;;
73474;SDS011;61711;52.266;10.542;2022-08-03T08:18:30;7.35;;;4.18;;
73474;SDS011;61711;52.266;10.542;2022-08-03T08:20:56;7.05;;;3.83;;
73474;SDS011;61711;52.266;10.542;2022-08-03T08:23:23;3.92;;;3.63;;
73474;SDS011;61711;52.266;10.542;2022-08-03T08:25:49;3.85;;;3.55;;
73474;SDS011;61711;52.266;10.542;2022-08-03T08:28:16;6.28;;;3.70;;
73474;SDS011;61711;52.266;10.542;2022-08-03T08:30:42;4.70;;;3.50;;
73474;SDS011;61711;52.266;10.542;2022-08-03T08:33:09;4.43;;;3.10;;
73474;SDS011;61711;52.266;10.542;2022-08-03T08:35:35;5.80;;;3.40;;
73474;SDS011;61711;52.266;10.542;2022-08-03T08:38:01;3.83;;;3.20;;
73474;SDS011;61711;52.266;10.542;2022-08-03T08:40:27;3.80;;;3.10;;
73474;SDS011;61711;52.266;10.542;2022-08-03T08:42:53;4.55;;;3.20;;
73474;SDS011;61711;52.266;10.542;2022-08-03T08:45:19;6.20;;;2.80;;
73474;SDS011;61711;52.266;10.542;2022-08-03T08:47:46;3.38;;;2.95;;
73474;SDS011;61711;52.266;10.542;2022-08-03T08:50:12;3.60;;;3.10;;
73474;SDS011;61711;52.266;10.542;2022-08-03T08:52:39;6.07;;;3.20;;
73474;SDS011;61711;52.266;10.542;2022-08-03T08:55:08;3.40;;;2.65;;
73474;SDS011;61711;52.266;10.542;2022-08-03T08:57:38;5.07;;;3.10;;
73474;SDS011;61711;52.266;10.542;2022-08-03T09:00:08;6.82;;;2.80;;
73474;SDS011;61711;52.266;10.542;2022-08-03T09:02:35;3.45;;;2.70;;
73474;SDS011;61711;52.266;10.542;2022-08-03T09:05:02;6.18;;;2.65;;
73474;SDS011;61711;52.266;10.542;2022-08-03T09:07:28;3.65;;;2.63;;
73474;SDS011;61711;52.266;10.542;2022-08-03T09:09:54;5.00;;;2.88;;
73474;SDS011;61711;52.266;10.542;2022-08-03T09:12:20;4.00;;;2.85;;
73474;SDS011;61711;52.266;10.542;2022-08-03T09:14:47;5.30;;;3.10;;
73474;SDS011;61711;52.266;10.542;2022-08-03T09:17:13;4.70;;;3.30;;
73474;SDS011;61711;52.266;10.542;2022-08-03T09:19:39;3.13;;;2.83;;
73474;SDS011;61711;52.266;10.542;2022-08-03T09:22:10;3.97;;;2.90;;
73474;SDS011;61711;52.266;10.542;2022-08-03T09:24:37;3.05;;;2.72;;
73474;SDS011;61711;52.266;10.542;2022-08-03T09:27:07;3.25;;;2.85;;
73474;SDS011;61711;52.266;10.542;2022-08-03T09:29:37;4.00;;;3.13;;
73474;SDS011;61711;52.266;10.542;2022-08-03T09:32:03;3.20;;;2.90;;
73474;SDS011;61711;52.266;10.542;2022-08-03T09:34:30;3.72;;;2.80;;
73474;SDS011;61711;52.266;10.542;2022-08-03T09:36:56;3.85;;;2.97;;
73474;SDS011;61711;52.266;10.542;2022-08-03T09:39:25;5.32;;;3.10;;
73474;SDS011;61711;52.266;10.542;2022-08-03T09:42:09;3.17;;;2.88;;
73474;SDS011;61711;52.266;10.542;2022-08-03T09:44:37;4.60;;;3.40;;
73474;SDS011;61711;52.266;10.542;2022-08-03T09:47:04;3.55;;;3.25;;
73474;SDS011;61711;52.266;10.542;2022-08-03T09:49:30;3.25;;;2.83;;
73474;SDS011;61711;52.266;10.542;2022-08-03T09:51:58;4.32;;;3.00;;
73474;SDS011;61711;52.266;10.542;2022-08-03T09:54:27;4.43;;;3.00;;
73474;SDS011;61711;52.266;10.542;2022-08-03T09:56:54;3.28;;;2.97;;
73474;SDS011;61711;52.266;10.542;2022-08-03T09:59:24;4.45;;;3.28;;
73474;SDS011;61711;52.266;10.542;2022-08-03T10:01:50;3.67;;;3.00;;
73474;SDS011;61711;52.266;10.542;2022-08-03T10:04:16;3.53;;;3.08;;
73474;SDS011;61711;52.266;10.542;2022-08-03T10:06:43;3.53;;;2.90;;
73474;SDS011;61711;52.266;10.542;2022-08-03T10:09:10;3.85;;;3.05;;
73474;SDS011;61711;52.266;10.542;2022-08-03T10:11:37;5.57;;;3.08;;
73474;SDS011;61711;52.266;10.542;2022-08-03T10:14:04;5.90;;;3.10;;
73474;SDS011;61711;52.266;10.542;2022-08-03T10:16:39;3.35;;;2.95;;
73474;SDS011;61711;52.266;10.542;2022-08-03T10:19:06;4.18;;;3.20;;
73474;SDS011;61711;52.266;10.542;2022-08-03T10:21:34;5.88;;;3.38;;
73474;SDS011;61711;52.266;10.542;2022-08-03T10:24:05;5.90;;;3.20;;
73474;SDS011;61711;52.266;10.542;2022-08-03T10:26:33;3.10;;;2.78;;
73474;SDS011;61711;52.266;10.542;2022-08-03T10:28:59;3.45;;;3.15;;
73474;SDS011;61711;52.266;10.542;2022-08-03T10:31:30;3.30;;;3.00;;
73474;SDS011;61711;52.266;10.542;2022-08-03T10:33:59;5.82;;;4.80;;
73474;SDS011;61711;52.266;10.542;2022-08-03T10:36:28;3.63;;;3.28;;
73474;SDS011;61711;52.266;10.542;2022-08-03T10:38:55;3.92;;;3.00;;
73474;SDS011;61711;52.266;10.542;2022-08-03T10:41:25;4.20;;;3.15;;
73474;SDS011;61711;52.266;10.542;2022-08-03T10:43:57;3.67;;;3.00;;
73474;SDS011;61711;52.266;10.542;2022-08-03T10:46:23;4.85;;;3.15;;
73474;SDS011;61711;52.266;10.542;2022-08-03T10:48:50;3.50;;;3.20;;
73474;SDS011;61711;52.266;10.542;2022-08-03T10:51:18;3.15;;;2.95;;
73474;SDS011;61711;52.266;10.542;2022-08-03T10:53:44;4.10;;;2.78;;
73474;SDS011;61711;52.266;10.542;2022-08-03T10:59:18;4.03;;;3.20;;
73474;SDS011;61711;52.266;10.542;2022-08-03T11:01:48;4.35;;;3.33;;
73474;SDS011;61711;52.266;10.542;2022-08-03T11:04:18;3.45;;;3.15;;
73474;SDS011;61711;52.266;10.542;2022-08-03T11:06:45;3.53;;;3.22;;
73474;SDS011;61711;52.266;10.542;2022-08-03T11:11:39;3.90;;;3.05;;
73474;SDS011;61711;52.266;10.542;2022-08-03T11:19:06;3.08;;;2.80;;
73474;SDS011;61711;52.266;10.542;2022-08-03T11:35:12;4.10;;;3.42;;
73474;SDS011;61711;52.266;10.542;2022-08-03T11:45:36;4.50;;;3.30;;
73474;SDS011;61711;52.266;10.542;2022-08-03T11:48:20;3.83;;;2.85;;
73474;SDS011;61711;52.266;10.542;2022-08-03T11:50:47;4.60;;;3.40;;
73474;SDS011;61711;52.266;10.542;2022-08-03T11:53:15;3.88;;;3.30;;
73474;SDS011;61711;52.266;10.542;2022-08-03T11:55:41;4.35;;;3.13;;
73474;SDS011;61711;52.266;10.542;2022-08-03T11:58:21;3.88;;;3.05;;
73474;SDS011;61711;52.266;10.542;2022-08-03T12:00:48;3.13;;;2.90;;
73474;SDS011;61711;52.266;10.542;2022-08-03T12:03:15;4.00;;;2.72;;
73474;SDS011;61711;52.266;10.542;2022-08-03T12:05:42;2.95;;;2.75;;
73474;SDS011;61711;52.266;10.542;2022-08-03T12:08:10;4.10;;;2.92;;
73474;SDS011;61711;52.266;10.542;2022-08-03T12:10:36;4.72;;;2.92;;
73474;SDS011;61711;52.266;10.542;2022-08-03T12:13:03;4.03;;;3.17;;
73474;SDS011;61711;52.266;10.542;2022-08-03T12:15:31;3.40;;;3.10;;
73474;SDS011;61711;52.266;10.542;2022-08-03T12:18:09;3.90;;;2.97;;
73474;SDS011;61711;52.266;10.542;2022-08-03T12:20:37;4.22;;;2.90;;
73474;SDS011;61711;52.266;10.542;2022-08-03T12:23:03;4.88;;;3.10;;
73474;SDS011;61711;52.266;10.542;2022-08-03T12:25:30;3.05;;;2.85;;
73474;SDS011;61711;52.266;10.542;2022-08-03T12:28:07;3.95;;;3.17;;
73474;SDS011;61711;52.266;10.542;2022-08-03T12:30:34;5.03;;;3.03;;
73474;SDS011;61711;52.266;10.542;2022-08-03T12:33:10;3.63;;;2.80;;
73474;SDS011;61711;52.266;10.542;2022-08-03T12:35:36;4.50;;;2.97;;
73474;SDS011;61711;52.266;10.542;2022-08-03T12:38:02;2.90;;;2.70;;
73474;SDS011;61711;52.266;10.542;2022-08-03T12:40:28;3.67;;;2.78;;
73474;SDS011;61711;52.266;10.542;2022-08-03T12:42:54;3.17;;;2.58;;
73474;SDS011;61711;52.266;10.542;2022-08-03T12:45:21;3.33;;;2.70;;
73474;SDS011;61711;52.266;10.542;2022-08-03T12:47:48;2.90;;;2.70;;
73474;SDS011;61711;52.266;10.542;2022-08-03T12:52:50;3.10;;;2.80;;
73474;SDS011;61711;52.266;10.542;2022-08-03T12:55:20;3.17;;;2.83;;
73474;SDS011;61711;52.266;10.542;2022-08-03T12:57:46;3.40;;;3.10;;
73474;SDS011;61711;52.266;10.542;2022-08-03T13:00:13;4.38;;;2.80;;
73474;SDS011;61711;52.266;10.542;2022-08-03T13:02:39;3.63;;;3.05;;
73474;SDS011;61711;52.266;10.542;2022-08-03T13:05:12;3.60;;;3.30;;
73474;SDS011;61711;52.266;10.542;2022-08-03T13:07:39;3.30;;;3.00;;
73474;SDS011;61711;52.266;10.542;2022-08-03T13:10:06;4.13;;;3.03;;
73474;SDS011;61711;52.266;10.542;2022-08-03T13:12:32;3.42;;;3.10;;
73474;SDS011;61711;52.266;10.542;2022-08-03T13:15:00;5.03;;;3.13;;
73474;SDS011;61711;52.266;10.542;2022-08-03T13:17:26;5.10;;;3.20;;
73474;SDS011;61711;52.266;10.542;2022-08-03T13:19:52;5.32;;;3.35;;
73474;SDS011;61711;52.266;10.542;2022-08-03T13:22:25;3.97;;;3.30;;
73474;SDS011;61711;52.266;10.542;2022-08-03T13:24:55;3.50;;;3.20;;
73474;SDS011;61711;52.266;10.542;2022-08-03T13:27:22;4.03;;;3.30;;
73474;SDS011;61711;52.266;10.542;2022-08-03T13:29:49;3.80;;;3.40;;
73474;SDS011;61711;52.266;10.542;2022-08-03T13:32:16;5.78;;;3.22;;
73474;SDS011;61711;52.266;10.542;2022-08-03T13:34:42;5.38;;;3.30;;
73474;SDS011;61711;52.266;10.542;2022-08-03T13:37:08;3.80;;;3.30;;
73474;SDS011;61711;52.266;10.542;2022-08-03T13:39:36;5.28;;;3.00;;
73474;SDS011;61711;52.266;10.542;2022-08-03T13:42:02;4.25;;;3.20;;
73474;SDS011;61711;52.266;10.542;2022-08-03T13:44:29;3.40;;;3.17;;
73474;SDS011;61711;52.266;10.542;2022-08-03T13:46:55;3.30;;;3.10;;
73474;SDS011;61711;52.266;10.542;2022-08-03T13:49:21;3.83;;;3.40;;
73474;SDS011;61711;52.266;10.542;2022-08-03T13:51:47;3.92;;;3.50;;
73474;SDS011;61711;52.266;10.542;2022-08-03T13:54:14;3.60;;;3.30;;
73474;SDS011;61711;52.266;10.542;2022-08-03T13:56:40;3.90;;;3.53;;
73474;SDS011;61711;52.266;10.542;2022-08-03T13:59:07;3.63;;;3.10;;
73474;SDS011;61711;52.266;10.542;2022-08-03T14:01:34;3.50;;;3.20;;
73474;SDS011;61711;52.266;10.542;2022-08-03T14:04:00;3.90;;;3.60;;
73474;SDS011;61711;52.266;10.542;2022-08-03T14:06:27;4.63;;;3.83;;
73474;SDS011;61711;52.266;10.542;2022-08-03T14:08:53;6.07;;;3.78;;
73474;SDS011;61711;52.266;10.542;2022-08-03T14:11:20;6.43;;;3.58;;
73474;SDS011;61711;52.266;10.542;2022-08-03T14:13:46;3.60;;;3.30;;
73474;SDS011;61711;52.266;10.542;2022-08-03T14:16:12;3.70;;;3.40;;
73474;SDS011;61711;52.266;10.542;2022-08-03T14:18:38;4.28;;;3.70;;
73474;SDS011;61711;52.266;10.542;2022-08-03T14:21:06;4.82;;;3.50;;
73474;SDS011;61711;52.266;10.542;2022-08-03T14:23:32;4.55;;;3.33;;
73474;SDS011;61711;52.266;10.542;2022-08-03T14:25:58;4.60;;;3.70;;
73474;SDS011;61711;52.266;10.542;2022-08-03T14:28:24;6.15;;;3.40;;
73474;SDS011;61711;52.266;10.542;2022-08-03T14:30:51;4.85;;;3.30;;
73474;SDS011;61711;52.266;10.542;2022-08-03T14:33:17;5.45;;;3.63;;
73474;SDS011;61711;52.266;10.542;2022-08-03T14:35:44;3.55;;;3.25;;
73474;SDS011;61711;52.266;10.542;2022-08-03T14:38:10;3.92;;;3.63;;
73474;SDS011;61711;52.266;10.542;2022-08-03T14:40:36;6.45;;;3.45;;
73474;SDS011;61711;52.266;10.542;2022-08-03T14:43:02;4.40;;;3.72;;
73474;SDS011;61711;52.266;10.542;2022-08-03T14:45:28;6.50;;;3.50;;
73474;SDS011;61711;52.266;10.542;2022-08-03T14:47:54;3.95;;;3.65;;
73474;SDS011;61711;52.266;10.542;2022-08-03T14:50:20;3.97;;;3.58;;
73474;SDS011;61711;52.266;10.542;2022-08-03T14:52:47;4.95;;;3.45;;
73474;SDS011;61711;52.266;10.542;2022-08-03T14:55:13;4.00;;;3.60;;
73474;SDS011;61711;52.266;10.542;2022-08-03T14:57:39;4.50;;;3.70;;
73474;SDS011;61711;52.266;10.542;2022-08-03T15:00:05;4.15;;;3.72;;
73474;SDS011;61711;52.266;10.542;2022-08-03T15:02:32;4.47;;;3.70;;
73474;SDS011;61711;52.266;10.542;2022-08-03T15:04:58;9.80;;;4.07;;
73474;SDS011;61711;52.266;10.542;2022-08-03T15:07:24;4.00;;;3.70;;
73474;SDS011;61711;52.266;10.542;2022-08-03T15:09:50;4.43;;;3.80;;
73474;SDS011;61711;52.266;10.542;2022-08-03T15:12:16;5.60;;;3.65;;
73474;SDS011;61711;52.266;10.542;2022-08-03T15:14:42;3.70;;;3.40;;
73474;SDS011;61711;52.266;10.542;2022-08-03T15:17:08;4.50;;;3.90;;
73474;SDS011;61711;52.266;10.542;2022-08-03T15:19:34;5.80;;;3.50;;